createdAt,value
2018-07-13T00:00:02.667Z,17.83
2018-07-13T00:02:31.318Z,29.43
2018-07-13T00:05:00.050Z,17.43
2018-07-13T00:07:29.008Z,21.23
2018-07-13T00:09:58.030Z,18.67
2018-07-13T00:12:27.070Z,20.50
2018-07-13T00:15:07.578Z,15.47
2018-07-13T00:17:36.645Z,17.77
2018-07-13T00:20:05.918Z,17.90
2018-07-13T00:22:34.632Z,15.97
2018-07-13T00:25:03.358Z,18.40
2018-07-13T00:27:32.034Z,15.70
2018-07-13T00:30:00.692Z,20.50
2018-07-13T00:32:29.582Z,17.27
2018-07-13T00:34:59.036Z,16.83
2018-07-13T00:37:28.288Z,17.87
2018-07-13T00:39:57.765Z,16.63
2018-07-13T00:42:26.403Z,16.57
2018-07-13T00:44:55.696Z,15.90
2018-07-13T00:47:24.586Z,20.40
2018-07-13T00:49:53.584Z,21.77
2018-07-13T00:52:22.261Z,17.73
2018-07-13T00:54:51.032Z,21.13
2018-07-13T00:57:21.495Z,20.27
2018-07-13T00:59:50.521Z,16.77
2018-07-13T01:02:19.430Z,17.60
2018-07-13T01:04:48.536Z,24.70
2018-07-13T01:07:17.199Z,16.23
2018-07-13T01:09:46.446Z,16.30
2018-07-13T01:12:15.195Z,24.93
2018-07-13T01:14:43.903Z,15.80
2018-07-13T01:17:12.560Z,18.23
2018-07-13T01:19:41.430Z,17.13
2018-07-13T01:22:10.066Z,17.90
2018-07-13T01:24:39.060Z,18.90
2018-07-13T01:27:07.714Z,20.80
2018-07-13T01:29:36.769Z,17.97
2018-07-13T01:32:05.445Z,24.00
2018-07-13T01:34:34.429Z,17.93
2018-07-13T01:37:03.021Z,18.13
2018-07-13T01:39:31.677Z,22.60
2018-07-13T01:42:00.400Z,17.73
2018-07-13T01:44:29.705Z,15.90
2018-07-13T01:46:58.424Z,15.60
2018-07-13T01:49:27.721Z,15.83
2018-07-13T01:51:56.839Z,21.23
2018-07-13T01:54:25.914Z,21.67
2018-07-13T01:56:54.532Z,16.00
2018-07-13T01:59:23.480Z,17.73
2018-07-13T02:01:52.382Z,17.60
2018-07-13T02:04:21.333Z,17.03
2018-07-13T02:06:49.979Z,18.43
2018-07-13T02:09:18.690Z,19.70
2018-07-13T02:11:47.316Z,30.97
2018-07-13T02:14:16.450Z,17.10
2018-07-13T02:16:45.081Z,15.57
2018-07-13T02:19:14.713Z,16.10
2018-07-13T02:21:45.284Z,17.40
2018-07-13T02:24:14.789Z,18.87
2018-07-13T02:26:44.629Z,16.87
2018-07-13T02:29:14.266Z,15.43
2018-07-13T02:31:42.881Z,22.43
2018-07-13T02:34:11.569Z,16.17
2018-07-13T02:36:40.545Z,18.50
2018-07-13T02:39:10.217Z,21.67
2018-07-13T02:41:39.397Z,23.67
2018-07-13T02:44:08.361Z,24.33
2018-07-13T02:46:37.014Z,30.53
2018-07-13T02:49:06.522Z,21.10
2018-07-13T02:51:35.184Z,17.93
2018-07-13T02:54:03.901Z,21.80
2018-07-13T02:56:32.527Z,17.63
2018-07-13T02:59:01.148Z,20.50
2018-07-13T03:01:30.142Z,18.27
2018-07-13T03:03:59.069Z,23.60
2018-07-13T03:06:27.713Z,17.63
2018-07-13T03:08:56.779Z,18.67
2018-07-13T03:11:25.413Z,18.57
2018-07-13T03:13:54.073Z,16.50
2018-07-13T03:16:22.707Z,18.60
2018-07-13T03:18:51.681Z,21.33
2018-07-13T03:21:20.311Z,16.23
2018-07-13T03:23:49.043Z,18.53
2018-07-13T03:26:17.765Z,21.17
2018-07-13T03:28:46.403Z,17.23
2018-07-13T03:31:15.409Z,19.57
2018-07-13T03:33:44.054Z,22.50
2018-07-13T03:36:12.666Z,17.53
2018-07-13T03:38:41.670Z,41.97
2018-07-13T03:41:10.383Z,19.90
2018-07-13T03:43:39.415Z,16.80
2018-07-13T03:46:08.781Z,16.47
2018-07-13T03:48:37.416Z,16.77
2018-07-13T03:51:06.321Z,23.63
2018-07-13T03:53:34.986Z,15.20
2018-07-13T03:56:04.238Z,16.90
2018-07-13T03:58:33.234Z,17.53
2018-07-13T04:01:02.260Z,17.73
2018-07-13T04:03:30.909Z,16.80
2018-07-13T04:06:00.343Z,17.53
2018-07-13T04:08:29.028Z,17.33
2018-07-13T04:10:58.109Z,16.20
2018-07-13T04:13:26.741Z,19.63
2018-07-13T04:15:55.710Z,19.63
2018-07-13T04:18:25.438Z,27.40
2018-07-13T04:20:54.895Z,22.37
2018-07-13T04:23:25.169Z,22.30
2018-07-13T04:25:54.189Z,23.40
2018-07-13T04:28:23.359Z,17.43
2018-07-13T04:30:52.318Z,20.70
2018-07-13T04:33:21.278Z,18.23
2018-07-13T04:35:49.909Z,22.10
2018-07-13T04:38:18.602Z,18.10
2018-07-13T04:40:47.277Z,16.90
2018-07-13T04:43:16.429Z,17.30
2018-07-13T04:45:45.557Z,22.67
2018-07-13T04:48:14.296Z,19.10
2018-07-13T04:50:43.065Z,18.33
2018-07-13T04:53:11.732Z,20.73
2018-07-13T04:55:41.025Z,15.70
2018-07-13T04:58:09.772Z,18.20
2018-07-13T05:00:39.901Z,24.70
2018-07-13T05:03:09.939Z,19.00
2018-07-13T05:05:39.376Z,18.30
2018-07-13T05:08:14.560Z,22.60
2018-07-13T05:10:43.215Z,22.70
2018-07-13T05:13:11.971Z,23.80
2018-07-13T05:15:40.662Z,25.80
2018-07-13T05:18:09.754Z,18.03
2018-07-13T05:20:38.451Z,22.23
2018-07-13T05:23:08.051Z,29.00
2018-07-13T05:25:36.896Z,19.57
2018-07-13T05:28:06.368Z,29.83
2018-07-13T05:30:35.429Z,22.87
2018-07-13T05:33:04.216Z,24.93
2018-07-13T05:35:33.371Z,25.07
2018-07-13T05:38:02.178Z,20.57
2018-07-13T05:40:30.867Z,20.57
2018-07-13T05:42:59.586Z,25.80
2018-07-13T05:45:28.262Z,25.37
2018-07-13T05:47:57.066Z,29.50
2018-07-13T05:50:25.749Z,22.00
2018-07-13T05:52:54.422Z,30.67
2018-07-13T05:55:23.255Z,22.27
2018-07-13T05:57:52.003Z,22.23
2018-07-13T06:00:21.085Z,23.50
2018-07-13T06:02:50.136Z,22.97
2018-07-13T06:05:19.443Z,24.00
2018-07-13T06:07:48.367Z,30.53
2018-07-13T06:10:17.337Z,28.67
2018-07-13T06:12:47.456Z,28.23
2018-07-13T06:15:16.097Z,24.60
2018-07-13T06:17:45.025Z,29.80
2018-07-13T06:20:13.827Z,33.97
2018-07-13T06:22:42.822Z,26.07
2018-07-13T06:25:12.533Z,26.17
2018-07-13T06:27:41.342Z,31.20
2018-07-13T06:30:10.353Z,29.83
2018-07-13T06:32:39.765Z,30.73
2018-07-13T06:35:08.514Z,25.87
2018-07-13T06:37:38.514Z,30.70
2018-07-13T06:40:07.261Z,25.87
2018-07-13T06:42:35.912Z,25.73
2018-07-13T06:45:05.010Z,35.23
2018-07-13T06:47:33.984Z,31.43
2018-07-13T06:50:02.665Z,28.30
2018-07-13T06:52:31.377Z,31.57
2018-07-13T06:55:00.026Z,27.10
2018-07-13T06:57:39.866Z,26.13
2018-07-13T07:01:12.629Z,32.00
2018-07-13T07:04:51.005Z,27.57
2018-07-13T07:07:22.981Z,27.93
2018-07-13T07:09:55.318Z,33.53
2018-07-13T07:12:47.088Z,24.60
2018-07-13T07:15:15.965Z,38.20
2018-07-13T07:17:44.702Z,30.60
2018-07-13T07:20:14.329Z,25.97
2018-07-13T07:22:43.261Z,36.63
2018-07-13T07:25:11.894Z,33.53
2018-07-13T07:27:40.531Z,36.70
2018-07-13T07:30:09.263Z,36.40
2018-07-13T07:32:37.977Z,24.40
2018-07-13T07:35:06.979Z,36.40
2018-07-13T07:37:35.955Z,30.73
2018-07-13T07:40:04.930Z,40.40
2018-07-13T07:42:34.012Z,46.17
2018-07-13T07:45:03.139Z,30.70
2018-07-13T07:47:32.074Z,38.83
2018-07-13T07:50:00.721Z,33.40
2018-07-13T07:52:29.759Z,36.30
2018-07-13T07:54:58.489Z,40.37
2018-07-13T07:57:27.226Z,40.87
2018-07-13T07:59:55.895Z,31.23
2018-07-13T08:02:24.539Z,38.03
2018-07-13T08:04:53.185Z,38.00
2018-07-13T08:07:22.016Z,42.70
2018-07-13T08:09:50.663Z,45.50
2018-07-13T08:12:19.901Z,38.03
2018-07-13T08:14:48.808Z,44.20
2018-07-13T08:17:17.499Z,39.00
2018-07-13T08:19:46.386Z,46.80
2018-07-13T08:22:17.779Z,48.93
2018-07-13T08:24:47.170Z,50.80
2018-07-13T08:27:19.271Z,50.30
2018-07-13T08:29:48.474Z,52.00
2018-07-13T08:32:17.405Z,46.80
2018-07-13T08:34:46.565Z,45.70
2018-07-13T08:37:15.959Z,50.97
2018-07-13T08:39:44.823Z,47.93
2018-07-13T08:42:13.794Z,41.63
2018-07-13T08:44:42.482Z,50.40
2018-07-13T08:47:11.409Z,48.30
2018-07-13T08:49:40.428Z,44.40
2018-07-13T08:52:09.486Z,48.90
2018-07-13T08:54:38.197Z,45.00
2018-07-13T08:57:06.920Z,44.93
2018-07-13T08:59:35.699Z,48.83
2018-07-13T09:02:04.403Z,48.47
2018-07-13T09:04:33.791Z,45.53
2018-07-13T09:07:02.768Z,46.30
2018-07-13T09:09:31.781Z,44.33
2018-07-13T09:12:00.436Z,45.63
2018-07-13T09:14:29.130Z,42.53
2018-07-13T09:16:57.823Z,41.30
2018-07-13T09:19:26.491Z,40.50
2018-07-13T09:21:55.520Z,57.17
2018-07-13T09:24:24.210Z,38.33
2018-07-13T09:26:53.192Z,38.83
2018-07-13T09:29:22.127Z,37.67
2018-07-13T09:31:50.850Z,41.83
2018-07-13T09:34:19.871Z,46.63
2018-07-13T09:36:48.758Z,38.83
2018-07-13T09:39:17.595Z,47.23
2018-07-13T09:41:46.615Z,41.97
2018-07-13T09:44:15.317Z,52.27
2018-07-13T09:46:44.394Z,46.40
2018-07-13T09:49:12.980Z,34.17
2018-07-13T09:51:41.706Z,39.50
2018-07-13T09:54:10.437Z,38.03
2018-07-13T09:56:39.382Z,35.70
2018-07-13T09:59:08.391Z,36.57
2018-07-13T10:01:37.150Z,38.40
2018-07-13T10:04:06.009Z,30.53
2018-07-13T10:06:34.776Z,37.40
2018-07-13T10:09:03.668Z,33.43
2018-07-13T10:11:33.347Z,31.50
2018-07-13T10:14:02.401Z,35.80
2018-07-13T10:16:31.091Z,37.33
2018-07-13T10:18:59.851Z,28.10
2018-07-13T10:21:29.412Z,31.63
2018-07-13T10:23:58.176Z,33.07
2018-07-13T10:26:37.381Z,34.03
2018-07-13T10:29:09.732Z,32.33
2018-07-13T10:31:38.495Z,28.20
2018-07-13T10:34:07.927Z,36.63
2018-07-13T10:36:40.170Z,29.60
2018-07-13T10:39:09.748Z,32.30
2018-07-13T10:41:45.135Z,51.33
2018-07-13T10:44:14.942Z,30.27
2018-07-13T10:46:43.715Z,34.30
2018-07-13T10:49:12.733Z,32.07
2018-07-13T10:51:41.742Z,36.00
2018-07-13T10:54:10.832Z,30.23
2018-07-13T10:56:41.045Z,32.07
2018-07-13T10:59:10.142Z,32.03
2018-07-13T11:01:39.056Z,32.40
2018-07-13T11:04:07.842Z,49.70
2018-07-13T11:06:37.161Z,35.63
2018-07-13T11:09:07.140Z,32.30
2018-07-13T11:11:36.461Z,24.30
2018-07-13T11:14:05.248Z,32.70
2018-07-13T11:16:34.112Z,30.37
2018-07-13T11:19:02.752Z,32.70
2018-07-13T11:21:31.810Z,33.47
2018-07-13T11:24:00.465Z,31.47
2018-07-13T11:26:29.145Z,31.77
2018-07-13T11:28:57.778Z,31.47
2018-07-13T11:31:26.521Z,33.60
2018-07-13T11:33:55.146Z,27.03
2018-07-13T11:36:23.763Z,25.33
2018-07-13T11:38:52.834Z,25.60
2018-07-13T11:41:22.131Z,27.13
2018-07-13T11:43:50.925Z,29.30
2018-07-13T11:46:19.919Z,31.83
2018-07-13T11:48:48.804Z,25.30
2018-07-13T11:51:17.496Z,26.97
2018-07-13T11:53:46.415Z,24.83
2018-07-13T11:56:15.371Z,40.27
2018-07-13T11:58:44.006Z,27.10
2018-07-13T12:01:12.644Z,22.97
2018-07-13T12:03:41.740Z,33.83
2018-07-13T12:06:11.048Z,24.50
2018-07-13T12:08:40.010Z,21.70
2018-07-13T12:11:08.670Z,23.27
2018-07-13T12:13:37.443Z,19.83
2018-07-13T12:16:06.963Z,23.50
2018-07-13T12:18:36.015Z,16.43
2018-07-13T12:21:04.674Z,20.33
2018-07-13T12:23:33.366Z,16.67
2018-07-13T12:26:02.277Z,15.10
2018-07-13T12:28:30.940Z,21.73
2018-07-13T12:30:59.650Z,15.27
2018-07-13T12:33:28.691Z,15.13
2018-07-13T12:35:57.348Z,15.60
2018-07-13T12:38:26.449Z,14.17
2018-07-13T12:40:55.136Z,18.63
2018-07-13T12:43:23.825Z,18.07
2018-07-13T12:45:52.847Z,14.70
2018-07-13T12:48:21.500Z,12.73
2018-07-13T12:50:50.425Z,11.27
2018-07-13T12:53:19.779Z,11.90
2018-07-13T12:55:48.447Z,11.55
2018-07-13T12:58:17.665Z,13.98
2018-07-13T13:00:46.566Z,10.95
2018-07-13T13:03:15.279Z,11.08
2018-07-13T13:05:44.300Z,10.55
2018-07-13T13:08:12.971Z,18.25
2018-07-13T13:10:41.945Z,10.10
2018-07-13T13:13:10.990Z,11.68
2018-07-13T13:15:40.203Z,10.20
2018-07-13T13:18:09.171Z,10.32
2018-07-13T13:20:37.880Z,13.10
2018-07-13T13:23:07.559Z,11.28
2018-07-13T13:25:36.539Z,10.50
2018-07-13T13:28:08.866Z,10.60
2018-07-13T13:30:37.448Z,10.18
2018-07-13T13:33:06.917Z,13.28
2018-07-13T13:35:35.588Z,12.60
2018-07-13T13:38:04.303Z,9.95
2018-07-13T13:40:32.957Z,9.40
2018-07-13T13:43:01.634Z,9.40
2018-07-13T13:45:30.685Z,12.65
2018-07-13T13:47:59.350Z,10.03
2018-07-13T13:50:28.289Z,9.83
2018-07-13T13:52:56.984Z,10.23
2018-07-13T13:55:25.626Z,11.73
2018-07-13T13:57:54.964Z,10.95
2018-07-13T14:00:24.261Z,9.90
2018-07-13T14:02:53.304Z,10.00
2018-07-13T14:05:22.336Z,10.05
2018-07-13T14:07:50.999Z,9.68
2018-07-13T14:10:19.793Z,9.85
2018-07-13T14:12:49.058Z,9.75
2018-07-13T14:15:17.726Z,10.20
2018-07-13T14:17:47.019Z,10.25
2018-07-13T14:20:15.739Z,10.68
2018-07-13T14:22:44.380Z,9.95
2018-07-13T14:25:13.066Z,9.65
2018-07-13T14:27:41.881Z,10.40
2018-07-13T14:30:11.052Z,10.23
2018-07-13T14:32:39.710Z,14.10
2018-07-13T14:35:08.908Z,11.22
2018-07-13T14:37:37.851Z,10.63
2018-07-13T14:40:06.739Z,13.08
2018-07-13T14:42:35.768Z,11.97
2018-07-13T14:45:04.518Z,11.17
2018-07-13T14:47:33.153Z,12.63
2018-07-13T14:50:02.410Z,13.80
2018-07-13T14:52:31.065Z,12.80
2018-07-13T14:55:00.020Z,14.47
2018-07-13T14:57:28.675Z,13.00
2018-07-13T14:59:57.381Z,13.80
2018-07-13T15:02:26.350Z,15.17
2018-07-13T15:04:55.047Z,15.13
2018-07-13T15:07:24.945Z,14.33
2018-07-13T15:09:54.358Z,13.43
2018-07-13T15:12:23.172Z,14.87
2018-07-13T15:14:52.698Z,22.17
2018-07-13T15:17:21.624Z,16.77
2018-07-13T15:19:50.360Z,18.83
2018-07-13T15:22:19.000Z,14.53
2018-07-13T15:24:48.492Z,21.37
2018-07-13T15:27:17.187Z,13.90
2018-07-13T15:29:45.898Z,14.57
2018-07-13T15:32:14.743Z,12.70
2018-07-13T15:34:43.967Z,25.37
2018-07-13T15:37:13.240Z,14.30
2018-07-13T15:39:41.951Z,17.63
2018-07-13T15:42:11.709Z,14.23
2018-07-13T15:44:40.383Z,18.30
2018-07-13T15:47:09.126Z,15.43
2018-07-13T15:49:38.602Z,15.20
2018-07-13T15:52:07.362Z,14.83
2018-07-13T15:54:36.108Z,14.87
2018-07-13T15:57:06.415Z,22.93
2018-07-13T15:59:35.679Z,15.47
2018-07-13T16:02:05.000Z,17.70
2018-07-13T16:04:34.085Z,14.70
2018-07-13T16:07:03.948Z,18.73
2018-07-13T16:09:34.430Z,12.53
2018-07-13T16:12:04.117Z,14.83
2018-07-13T16:14:33.941Z,16.43
2018-07-13T16:17:03.792Z,14.90
2018-07-13T16:19:33.586Z,24.13
2018-07-13T16:22:03.544Z,14.87
2018-07-13T16:24:32.773Z,15.10
2018-07-13T16:27:01.433Z,19.03
2018-07-13T16:29:30.351Z,20.83
2018-07-13T16:31:59.254Z,23.47
2018-07-13T16:34:28.285Z,15.50
2018-07-13T16:36:57.002Z,12.90
2018-07-13T16:39:26.543Z,10.30
2018-07-13T16:41:55.283Z,10.27
2018-07-13T16:44:24.299Z,10.53
2018-07-13T16:46:53.046Z,11.03
2018-07-13T16:49:21.811Z,13.70
2018-07-13T16:51:51.327Z,11.93
2018-07-13T16:54:20.629Z,15.93
2018-07-13T16:56:49.674Z,14.17
2018-07-13T16:59:18.323Z,13.73
2018-07-13T17:01:47.055Z,26.83
2018-07-13T17:04:15.715Z,15.43
2018-07-13T17:06:44.671Z,14.00
2018-07-13T17:09:13.341Z,13.87
2018-07-13T17:11:42.797Z,14.77
2018-07-13T17:14:11.502Z,13.03
2018-07-13T17:16:40.141Z,15.10
2018-07-13T17:19:09.282Z,12.47
2018-07-13T17:21:37.949Z,19.30
2018-07-13T17:24:06.888Z,16.90
2018-07-13T17:26:35.598Z,14.43
2018-07-13T17:29:04.334Z,15.07
2018-07-13T17:31:33.152Z,15.43
2018-07-13T17:34:01.866Z,25.33
2018-07-13T17:36:31.126Z,15.80
2018-07-13T17:38:59.826Z,12.70
2018-07-13T17:41:28.459Z,17.97
2018-07-13T17:43:57.305Z,18.57
2018-07-13T17:46:26.070Z,15.23
2018-07-13T17:48:54.746Z,14.03
2018-07-13T17:51:23.548Z,17.63
2018-07-13T17:53:52.510Z,20.97
2018-07-13T17:56:21.233Z,15.20
2018-07-13T17:58:50.310Z,19.33
2018-07-13T18:01:19.101Z,19.00
2018-07-13T18:03:47.802Z,14.37
2018-07-13T18:06:16.602Z,17.30
2018-07-13T18:08:45.346Z,13.27
2018-07-13T18:11:14.021Z,20.83
2018-07-13T18:13:42.765Z,22.90
2018-07-13T18:16:11.709Z,18.13
2018-07-13T18:18:40.412Z,15.80
2018-07-13T18:21:09.140Z,16.93
2018-07-13T18:23:37.945Z,17.10
2018-07-13T18:26:06.634Z,15.17
2018-07-13T18:28:35.654Z,20.37
2018-07-13T18:31:06.295Z,15.03
2018-07-13T18:33:35.018Z,14.90
2018-07-13T18:36:03.664Z,16.10
2018-07-13T18:38:32.457Z,14.50
2018-07-13T18:41:01.678Z,20.50
2018-07-13T18:43:39.916Z,16.87
2018-07-13T18:46:09.923Z,18.77
2018-07-13T18:48:39.286Z,14.13
2018-07-13T18:51:08.438Z,14.77
2018-07-13T18:53:37.581Z,16.70
2018-07-13T18:56:06.358Z,21.00
2018-07-13T18:58:35.777Z,15.27
2018-07-13T19:01:04.633Z,14.40
2018-07-13T19:03:33.660Z,15.20
2018-07-13T19:06:02.470Z,13.53
2018-07-13T19:08:31.544Z,14.43
2018-07-13T19:11:00.544Z,12.23
2018-07-13T19:13:29.518Z,21.40
2018-07-13T19:15:58.542Z,14.90
2018-07-13T19:18:27.266Z,15.17
2018-07-13T19:20:56.154Z,15.27
2018-07-13T19:23:24.845Z,13.27
2018-07-13T19:25:53.897Z,18.13
2018-07-13T19:28:22.762Z,14.60
2018-07-13T19:30:54.095Z,15.83
2018-07-13T19:33:23.641Z,14.43
2018-07-13T19:35:52.416Z,15.60
2018-07-13T19:38:21.170Z,14.80
2018-07-13T19:40:49.877Z,13.20
2018-07-13T19:43:18.615Z,13.50
2018-07-13T19:45:48.047Z,17.67
2018-07-13T19:48:17.143Z,16.40
2018-07-13T19:50:46.396Z,15.70
2018-07-13T19:53:15.337Z,15.80
2018-07-13T19:55:44.314Z,15.17
2018-07-13T19:58:13.031Z,15.20
2018-07-13T20:00:41.893Z,17.17
2018-07-13T20:03:10.956Z,17.33
2018-07-13T20:05:39.648Z,15.97
2018-07-13T20:08:08.709Z,16.73
2018-07-13T20:10:37.536Z,22.30
2018-07-13T20:13:07.042Z,16.67
2018-07-13T20:15:35.826Z,15.57
2018-07-13T20:18:04.724Z,27.60
2018-07-13T20:20:33.773Z,19.50
2018-07-13T20:23:03.174Z,15.90
2018-07-13T20:25:32.299Z,19.33
2018-07-13T20:28:01.005Z,19.20
2018-07-13T20:30:29.898Z,18.77
2018-07-13T20:32:59.796Z,25.90
2018-07-13T20:35:29.212Z,15.17
2018-07-13T20:37:58.056Z,18.50
2018-07-13T20:40:26.750Z,15.27
2018-07-13T20:42:56.090Z,15.33
2018-07-13T20:45:24.908Z,17.47
2018-07-13T20:47:55.291Z,25.07
2018-07-13T20:50:24.046Z,21.60
2018-07-13T20:52:53.568Z,18.20
2018-07-13T20:55:24.265Z,16.23
2018-07-13T20:57:53.250Z,16.67
2018-07-13T21:00:22.347Z,14.40
2018-07-13T21:02:51.242Z,18.17
2018-07-13T21:05:19.969Z,20.30
2018-07-13T21:07:49.117Z,16.30
2018-07-13T21:10:18.448Z,19.27
2018-07-13T21:12:47.121Z,16.60
2018-07-13T21:15:17.592Z,15.73
2018-07-13T21:17:46.687Z,15.10
2018-07-13T21:20:16.049Z,14.00
2018-07-13T21:22:45.433Z,16.10
2018-07-13T21:25:14.217Z,15.00
2018-07-13T21:27:43.240Z,17.93
2018-07-13T21:30:16.866Z,17.67
2018-07-13T21:32:49.290Z,25.03
2018-07-13T21:35:27.688Z,15.73
2018-07-13T21:37:59.260Z,15.00
2018-07-13T21:40:28.134Z,18.37
2018-07-13T21:42:57.979Z,16.20
2018-07-13T21:45:27.482Z,19.43
2018-07-13T21:47:56.363Z,21.00
2018-07-13T21:50:25.919Z,18.73
2018-07-13T21:52:54.615Z,18.77
2018-07-13T21:55:27.927Z,13.97
2018-07-13T21:57:56.546Z,18.10
2018-07-13T22:00:25.651Z,17.03
2018-07-13T22:02:54.347Z,28.67
2018-07-13T22:05:24.682Z,15.90
2018-07-13T22:07:54.104Z,17.00
2018-07-13T22:10:22.962Z,15.60
2018-07-13T22:12:51.811Z,19.03
2018-07-13T22:15:20.596Z,23.60
2018-07-13T22:17:49.243Z,14.80
2018-07-13T22:20:18.271Z,17.30
2018-07-13T22:22:47.265Z,24.40
2018-07-13T22:25:16.131Z,24.80
2018-07-13T22:27:44.930Z,16.83
2018-07-13T22:30:13.608Z,16.90
2018-07-13T22:32:42.375Z,18.73
2018-07-13T22:35:11.316Z,20.30
2018-07-13T22:37:40.422Z,22.27
2018-07-13T22:40:09.609Z,18.10
2018-07-13T22:42:38.656Z,22.63
2018-07-13T22:45:07.410Z,18.87
2018-07-13T22:47:36.261Z,20.53
2018-07-13T22:50:05.252Z,18.77
2018-07-13T22:52:34.007Z,16.87
2018-07-13T22:55:02.772Z,13.90
2018-07-13T22:57:32.309Z,18.10
2018-07-13T23:00:01.422Z,19.50
2018-07-13T23:02:30.029Z,26.67
2018-07-13T23:04:59.255Z,18.60
2018-07-13T23:07:28.532Z,24.63
2018-07-13T23:09:57.294Z,15.73
2018-07-13T23:12:26.336Z,20.20
2018-07-13T23:14:55.026Z,17.63
2018-07-13T23:17:23.954Z,20.90
2018-07-13T23:19:52.716Z,20.27
2018-07-13T23:22:21.726Z,20.00
2018-07-13T23:24:50.515Z,15.67
2018-07-13T23:27:19.142Z,14.50
2018-07-13T23:29:47.780Z,22.40
2018-07-13T23:32:16.759Z,22.43
2018-07-13T23:34:45.535Z,17.63
2018-07-13T23:37:14.264Z,18.80
2018-07-13T23:39:43.154Z,22.43
2018-07-13T23:42:11.813Z,16.07
2018-07-13T23:44:40.474Z,20.00
2018-07-13T23:47:09.390Z,20.57
2018-07-13T23:49:38.311Z,19.60
2018-07-13T23:52:07.079Z,16.70
2018-07-13T23:54:36.106Z,18.93
2018-07-13T23:57:04.871Z,19.83
2018-07-13T23:59:33.598Z,18.97
